UAL2357 KDEN-KLAX
Flight info
| Callsign | UAL2357 |
|---|---|
| Flight time | 1h 51m |
| Altitude | 34000 |
| Route | BAYLR6 TEHRU JASSE Q90 DNERO ANJLL4 |
| Aircraft | B739/M-SDE2E3FGHIRWXY/LB1 |
Departure
| Time | 2026-05-06 19:43 |
|---|---|
| Airport | Denver International Airport (KDEN) |
Arrival
| Time | 2026-05-06 21:34 |
|---|---|
| Airport | Los Angeles International Airport (KLAX) |
| Time | Latitude | Longitude | Altitude | Speed | Heading |
|---|---|---|---|---|---|
| 2026-05-06 19:11 | 39.85799 | -104.67626 | 5365 ft | 0 kts | 359° |
| 2026-05-06 19:26 | 39.85798 | -104.67626 | 5365 ft | 0 kts | 359° |
| 2026-05-06 19:27 | 39.85788 | -104.67626 | 5362 ft | 2 kts | 0° |
| 2026-05-06 19:28 | 39.85774 | -104.67626 | 5365 ft | 2 kts | 360° |
| 2026-05-06 19:28 | 39.85761 | -104.67626 | 5365 ft | 2 kts | 1° |
| 2026-05-06 19:28 | 39.85748 | -104.67626 | 5365 ft | 2 kts | 2° |
| 2026-05-06 19:28 | 39.85734 | -104.67627 | 5363 ft | 2 kts | 2° |
| 2026-05-06 19:29 | 39.85725 | -104.67627 | 5364 ft | 0 kts | 0° |
| 2026-05-06 19:32 | 39.85727 | -104.67628 | 5362 ft | 1 kts | 345° |
| 2026-05-06 19:32 | 39.85729 | -104.67634 | 5362 ft | 2 kts | 308° |
| 2026-05-06 19:32 | 39.85736 | -104.67656 | 5366 ft | 3 kts | 274° |
| 2026-05-06 19:33 | 39.85728 | -104.67692 | 5365 ft | 5 kts | 249° |
| 2026-05-06 19:33 | 39.85707 | -104.67746 | 5365 ft | 8 kts | 243° |
| 2026-05-06 19:33 | 39.85682 | -104.67808 | 5365 ft | 8 kts | 243° |
| 2026-05-06 19:33 | 39.85658 | -104.67869 | 5364 ft | 8 kts | 243° |
| 2026-05-06 19:34 | 39.85632 | -104.67933 | 5362 ft | 8 kts | 243° |
| 2026-05-06 19:34 | 39.85606 | -104.67998 | 5365 ft | 8 kts | 243° |
| 2026-05-06 19:34 | 39.85591 | -104.68070 | 5365 ft | 8 kts | 265° |
| 2026-05-06 19:34 | 39.85591 | -104.68142 | 5365 ft | 8 kts | 272° |
| 2026-05-06 19:35 | 39.85593 | -104.68228 | 5365 ft | 10 kts | 272° |
| 2026-05-06 19:35 | 39.85596 | -104.68315 | 5364 ft | 10 kts | 272° |
| 2026-05-06 19:35 | 39.85600 | -104.68400 | 5365 ft | 9 kts | 272° |
| 2026-05-06 19:35 | 39.85593 | -104.68482 | 5365 ft | 9 kts | 245° |
| 2026-05-06 19:36 | 39.85547 | -104.68519 | 5364 ft | 7 kts | 188° |
| 2026-05-06 19:36 | 39.85499 | -104.68516 | 5363 ft | 7 kts | 177° |
| 2026-05-06 19:36 | 39.85451 | -104.68513 | 5364 ft | 7 kts | 177° |
| 2026-05-06 19:36 | 39.85404 | -104.68510 | 5364 ft | 7 kts | 177° |
| 2026-05-06 19:37 | 39.85358 | -104.68508 | 5363 ft | 7 kts | 179° |
| 2026-05-06 19:37 | 39.85304 | -104.68507 | 5363 ft | 9 kts | 180° |
| 2026-05-06 19:37 | 39.85243 | -104.68514 | 5363 ft | 9 kts | 196° |
| 2026-05-06 19:37 | 39.85204 | -104.68569 | 5365 ft | 8 kts | 253° |
| 2026-05-06 19:38 | 39.85200 | -104.68644 | 5363 ft | 8 kts | 268° |
| 2026-05-06 19:38 | 39.85198 | -104.68718 | 5365 ft | 8 kts | 268° |
| 2026-05-06 19:38 | 39.85196 | -104.68789 | 5365 ft | 8 kts | 270° |
| 2026-05-06 19:38 | 39.85197 | -104.68861 | 5365 ft | 8 kts | 272° |
| 2026-05-06 19:39 | 39.85199 | -104.68933 | 5365 ft | 8 kts | 271° |
| 2026-05-06 19:39 | 39.85199 | -104.69002 | 5365 ft | 8 kts | 269° |
| 2026-05-06 19:39 | 39.85198 | -104.69068 | 5365 ft | 7 kts | 268° |
| 2026-05-06 19:39 | 39.85196 | -104.69139 | 5365 ft | 8 kts | 268° |
| 2026-05-06 19:40 | 39.85195 | -104.69215 | 5365 ft | 8 kts | 269° |
| 2026-05-06 19:40 | 39.85198 | -104.69294 | 5362 ft | 9 kts | 274° |
| 2026-05-06 19:40 | 39.85202 | -104.69373 | 5364 ft | 9 kts | 272° |
| 2026-05-06 19:40 | 39.85202 | -104.69449 | 5364 ft | 8 kts | 269° |
| 2026-05-06 19:41 | 39.85200 | -104.69524 | 5363 ft | 8 kts | 268° |
| 2026-05-06 19:41 | 39.85198 | -104.69596 | 5365 ft | 8 kts | 269° |
| 2026-05-06 19:41 | 39.85224 | -104.69652 | 5363 ft | 8 kts | 333° |
| 2026-05-06 19:41 | 39.85249 | -104.69658 | 5363 ft | 0 kts | 1° |
| 2026-05-06 19:42 | 39.85308 | -104.69657 | 5363 ft | 34 kts | 0° |
| 2026-05-06 19:42 | 39.85787 | -104.69654 | 5366 ft | 101 kts | 0° |
| 2026-05-06 19:42 | 39.86691 | -104.69643 | 5364 ft | 156 kts | 0° |
| 2026-05-06 19:42 | 39.87910 | -104.69589 | 5536 ft | 190 kts | 3° |
| 2026-05-06 19:43 | 39.89298 | -104.69507 | 6253 ft | 199 kts | 1° |
| 2026-05-06 19:43 | 39.90594 | -104.69912 | 7236 ft | 195 kts | 328° |
| 2026-05-06 19:43 | 39.91530 | -104.71270 | 7525 ft | 216 kts | 292° |
| 2026-05-06 19:43 | 39.91676 | -104.73234 | 7681 ft | 234 kts | 256° |
| 2026-05-06 19:44 | 39.91053 | -104.75279 | 7896 ft | 253 kts | 243° |
| 2026-05-06 19:44 | 39.90192 | -104.77395 | 8128 ft | 274 kts | 241° |
| 2026-05-06 19:44 | 39.89257 | -104.79592 | 8798 ft | 279 kts | 241° |
| 2026-05-06 19:44 | 39.88317 | -104.81804 | 9677 ft | 280 kts | 241° |
| 2026-05-06 19:45 | 39.87376 | -104.84039 | 10356 ft | 287 kts | 242° |
| 2026-05-06 19:45 | 39.86384 | -104.86420 | 10541 ft | 311 kts | 242° |
| 2026-05-06 19:45 | 39.85322 | -104.88989 | 10719 ft | 333 kts | 242° |
| 2026-05-06 19:45 | 39.84209 | -104.91698 | 10892 ft | 354 kts | 242° |
| 2026-05-06 19:46 | 39.83019 | -104.94601 | 11047 ft | 373 kts | 242° |
| 2026-05-06 19:46 | 39.81778 | -104.97636 | 11322 ft | 386 kts | 243° |
| 2026-05-06 19:46 | 39.80510 | -105.00740 | 11872 ft | 390 kts | 243° |
| 2026-05-06 19:46 | 39.79232 | -105.03866 | 12513 ft | 393 kts | 243° |
| 2026-05-06 19:47 | 39.77943 | -105.07017 | 13114 ft | 397 kts | 243° |
| 2026-05-06 19:47 | 39.76642 | -105.10200 | 13745 ft | 400 kts | 243° |
| 2026-05-06 19:47 | 39.75328 | -105.13408 | 14349 ft | 403 kts | 243° |
| 2026-05-06 19:47 | 39.74025 | -105.16587 | 14976 ft | 404 kts | 243° |
| 2026-05-06 19:48 | 39.72706 | -105.19800 | 15645 ft | 403 kts | 244° |
| 2026-05-06 19:48 | 39.71385 | -105.23014 | 16275 ft | 404 kts | 244° |
| 2026-05-06 19:48 | 39.70062 | -105.26234 | 16858 ft | 405 kts | 244° |
| 2026-05-06 19:48 | 39.68731 | -105.29467 | 17428 ft | 407 kts | 244° |
| 2026-05-06 19:49 | 39.67395 | -105.32709 | 17998 ft | 408 kts | 244° |
| 2026-05-06 19:49 | 39.66055 | -105.35958 | 18548 ft | 409 kts | 244° |
| 2026-05-06 19:49 | 39.64707 | -105.39222 | 18951 ft | 413 kts | 244° |
| 2026-05-06 19:49 | 39.63360 | -105.42483 | 19290 ft | 418 kts | 244° |
| 2026-05-06 19:50 | 39.61980 | -105.45818 | 19648 ft | 422 kts | 244° |
| 2026-05-06 19:50 | 39.60587 | -105.49183 | 20020 ft | 425 kts | 244° |
| 2026-05-06 19:50 | 39.59179 | -105.52579 | 20401 ft | 429 kts | 244° |
| 2026-05-06 19:50 | 39.57761 | -105.55994 | 20775 ft | 433 kts | 244° |
| 2026-05-06 19:51 | 39.56327 | -105.59445 | 21148 ft | 436 kts | 244° |
| 2026-05-06 19:51 | 39.54951 | -105.62957 | 21517 ft | 438 kts | 249° |
| 2026-05-06 19:51 | 39.53877 | -105.66661 | 21872 ft | 440 kts | 253° |
| 2026-05-06 19:51 | 39.52883 | -105.70365 | 22218 ft | 443 kts | 253° |
| 2026-05-06 19:52 | 39.51873 | -105.74151 | 22577 ft | 446 kts | 253° |
| 2026-05-06 19:52 | 39.50846 | -105.77960 | 22929 ft | 449 kts | 253° |
| 2026-05-06 19:52 | 39.49800 | -105.81789 | 23287 ft | 453 kts | 253° |
| 2026-05-06 19:52 | 39.48738 | -105.85637 | 23623 ft | 456 kts | 253° |
| 2026-05-06 19:53 | 39.47662 | -105.89504 | 23903 ft | 458 kts | 253° |
| 2026-05-06 19:53 | 39.46573 | -105.93404 | 24146 ft | 463 kts | 253° |
| 2026-05-06 19:53 | 39.45474 | -105.97336 | 24380 ft | 467 kts | 253° |
| 2026-05-06 19:53 | 39.44379 | -106.01243 | 24625 ft | 470 kts | 253° |
| 2026-05-06 19:54 | 39.43261 | -106.05232 | 24889 ft | 473 kts | 254° |
| 2026-05-06 19:54 | 39.42134 | -106.09247 | 25105 ft | 477 kts | 254° |
| 2026-05-06 19:54 | 39.40997 | -106.13291 | 25325 ft | 480 kts | 254° |
| 2026-05-06 19:54 | 39.39851 | -106.17361 | 25579 ft | 483 kts | 254° |
| 2026-05-06 19:55 | 39.38697 | -106.21458 | 25795 ft | 487 kts | 254° |
| 2026-05-06 19:55 | 39.37535 | -106.25581 | 26004 ft | 490 kts | 254° |
| 2026-05-06 19:55 | 39.36365 | -106.29726 | 26214 ft | 493 kts | 255° |
| 2026-05-06 19:55 | 39.35203 | -106.33838 | 26383 ft | 494 kts | 255° |
| 2026-05-06 19:56 | 39.34021 | -106.38011 | 26611 ft | 496 kts | 255° |
| 2026-05-06 19:56 | 39.32833 | -106.42201 | 26826 ft | 497 kts | 255° |
| 2026-05-06 19:56 | 39.31641 | -106.46397 | 27079 ft | 499 kts | 255° |
| 2026-05-06 19:56 | 39.30443 | -106.50607 | 27326 ft | 500 kts | 255° |
| 2026-05-06 19:57 | 39.29241 | -106.54828 | 27556 ft | 501 kts | 255° |
| 2026-05-06 19:57 | 39.28036 | -106.59047 | 27814 ft | 502 kts | 255° |
| 2026-05-06 19:57 | 39.26827 | -106.63278 | 28056 ft | 504 kts | 256° |
| 2026-05-06 19:57 | 39.25611 | -106.67530 | 28258 ft | 507 kts | 256° |
| 2026-05-06 19:58 | 39.24262 | -106.71696 | 28465 ft | 514 kts | 249° |
| 2026-05-06 19:58 | 39.22432 | -106.75697 | 28760 ft | 523 kts | 240° |
| 2026-05-06 19:58 | 39.20270 | -106.79472 | 29051 ft | 524 kts | 238° |
| 2026-05-06 19:58 | 39.18054 | -106.83220 | 29260 ft | 527 kts | 238° |
| 2026-05-06 19:59 | 39.15816 | -106.86977 | 29487 ft | 530 kts | 238° |
| 2026-05-06 19:59 | 39.13571 | -106.90759 | 29754 ft | 531 kts | 238° |
| 2026-05-06 19:59 | 39.11337 | -106.94548 | 29989 ft | 532 kts | 238° |
| 2026-05-06 19:59 | 39.09113 | -106.98347 | 30297 ft | 531 kts | 239° |
| 2026-05-06 20:00 | 39.06901 | -107.02143 | 30621 ft | 529 kts | 239° |
| 2026-05-06 20:00 | 39.04704 | -107.05918 | 31022 ft | 525 kts | 239° |
| 2026-05-06 20:00 | 39.02529 | -107.09656 | 31521 ft | 519 kts | 238° |
| 2026-05-06 20:00 | 39.00406 | -107.13301 | 31942 ft | 515 kts | 238° |
| 2026-05-06 20:01 | 38.98264 | -107.16977 | 32276 ft | 513 kts | 238° |
| 2026-05-06 20:01 | 38.96129 | -107.20639 | 32556 ft | 511 kts | 238° |
| 2026-05-06 20:01 | 38.93995 | -107.24294 | 32826 ft | 511 kts | 238° |
| 2026-05-06 20:01 | 38.91866 | -107.27935 | 33140 ft | 508 kts | 238° |
| 2026-05-06 20:02 | 38.89749 | -107.31547 | 33564 ft | 505 kts | 238° |
| 2026-05-06 20:02 | 38.87643 | -107.35136 | 33919 ft | 502 kts | 238° |
| 2026-05-06 20:02 | 38.85543 | -107.38712 | 34044 ft | 503 kts | 238° |
| 2026-05-06 20:02 | 38.83436 | -107.42298 | 34044 ft | 504 kts | 238° |
| 2026-05-06 20:03 | 38.79220 | -107.49459 | 34037 ft | 502 kts | 238° |
| 2026-05-06 20:03 | 38.75045 | -107.56531 | 34032 ft | 500 kts | 238° |
| 2026-05-06 20:04 | 38.70849 | -107.63624 | 34058 ft | 500 kts | 238° |
| 2026-05-06 20:04 | 38.66643 | -107.70721 | 34092 ft | 501 kts | 238° |
| 2026-05-06 20:05 | 38.62421 | -107.77829 | 34119 ft | 502 kts | 238° |
| 2026-05-06 20:05 | 38.58189 | -107.84937 | 34140 ft | 503 kts | 238° |
| 2026-05-06 20:06 | 38.53944 | -107.92049 | 34143 ft | 503 kts | 238° |
| 2026-05-06 20:06 | 38.49719 | -107.99114 | 34148 ft | 504 kts | 237° |
| 2026-05-06 20:07 | 38.45453 | -108.06231 | 34122 ft | 505 kts | 237° |
| 2026-05-06 20:07 | 38.41178 | -108.13349 | 34088 ft | 506 kts | 238° |
| 2026-05-06 20:08 | 38.36892 | -108.20467 | 34070 ft | 506 kts | 237° |
| 2026-05-06 20:08 | 38.32625 | -108.27539 | 34036 ft | 507 kts | 237° |
| 2026-05-06 20:09 | 38.28322 | -108.34656 | 34032 ft | 507 kts | 237° |
| 2026-05-06 20:09 | 38.24013 | -108.41767 | 34045 ft | 508 kts | 237° |
| 2026-05-06 20:10 | 38.19689 | -108.48888 | 34029 ft | 509 kts | 237° |
| 2026-05-06 20:10 | 38.15356 | -108.56008 | 34029 ft | 510 kts | 237° |
| 2026-05-06 20:11 | 38.11011 | -108.63130 | 34015 ft | 510 kts | 237° |
| 2026-05-06 20:11 | 38.06699 | -108.70185 | 34016 ft | 510 kts | 237° |
| 2026-05-06 20:12 | 38.02345 | -108.77291 | 34003 ft | 510 kts | 237° |
| 2026-05-06 20:12 | 37.97988 | -108.84389 | 34022 ft | 510 kts | 237° |
| 2026-05-06 20:13 | 37.93627 | -108.91478 | 34007 ft | 510 kts | 237° |
| 2026-05-06 20:13 | 37.89257 | -108.98565 | 34004 ft | 510 kts | 237° |
| 2026-05-06 20:14 | 37.84917 | -109.05588 | 34003 ft | 510 kts | 237° |
| 2026-05-06 20:14 | 37.80544 | -109.12650 | 34015 ft | 510 kts | 237° |
| 2026-05-06 20:15 | 37.76158 | -109.19718 | 34045 ft | 511 kts | 237° |
| 2026-05-06 20:15 | 37.71780 | -109.26759 | 34080 ft | 510 kts | 237° |
| 2026-05-06 20:16 | 37.67384 | -109.33813 | 34106 ft | 511 kts | 237° |
| 2026-05-06 20:16 | 37.63010 | -109.40818 | 34132 ft | 513 kts | 237° |
| 2026-05-06 20:17 | 37.58588 | -109.47883 | 34138 ft | 513 kts | 237° |
| 2026-05-06 20:17 | 37.54158 | -109.54945 | 34138 ft | 514 kts | 237° |
| 2026-05-06 20:18 | 37.49715 | -109.62014 | 34114 ft | 515 kts | 237° |
| 2026-05-06 20:18 | 37.45293 | -109.69033 | 34069 ft | 516 kts | 237° |
| 2026-05-06 20:19 | 37.40831 | -109.76108 | 34021 ft | 516 kts | 237° |
| 2026-05-06 20:19 | 37.36358 | -109.83180 | 33964 ft | 517 kts | 236° |
| 2026-05-06 20:20 | 37.31871 | -109.90252 | 33959 ft | 517 kts | 236° |
| 2026-05-06 20:20 | 37.27385 | -109.97311 | 33966 ft | 517 kts | 236° |
| 2026-05-06 20:21 | 37.22917 | -110.04328 | 33955 ft | 519 kts | 236° |
| 2026-05-06 20:21 | 37.18404 | -110.11400 | 33940 ft | 519 kts | 236° |
| 2026-05-06 20:22 | 37.13889 | -110.18463 | 33936 ft | 520 kts | 236° |
| 2026-05-06 20:22 | 37.09360 | -110.25531 | 33935 ft | 520 kts | 236° |
| 2026-05-06 20:23 | 37.04826 | -110.32593 | 33930 ft | 521 kts | 236° |
| 2026-05-06 20:23 | 37.00288 | -110.39646 | 33933 ft | 520 kts | 236° |
| 2026-05-06 20:24 | 36.95775 | -110.46647 | 33933 ft | 520 kts | 235° |
| 2026-05-06 20:24 | 36.91227 | -110.53684 | 33934 ft | 520 kts | 235° |
| 2026-05-06 20:25 | 36.86681 | -110.60703 | 33929 ft | 520 kts | 235° |
| 2026-05-06 20:25 | 36.82128 | -110.67720 | 33927 ft | 520 kts | 235° |
| 2026-05-06 20:26 | 36.77570 | -110.74731 | 33935 ft | 520 kts | 235° |
| 2026-05-06 20:26 | 36.73043 | -110.81679 | 33924 ft | 520 kts | 235° |
| 2026-05-06 20:27 | 36.68475 | -110.88676 | 33922 ft | 520 kts | 234° |
| 2026-05-06 20:27 | 36.63901 | -110.95666 | 33912 ft | 520 kts | 234° |
| 2026-05-06 20:28 | 36.59328 | -111.02639 | 33911 ft | 520 kts | 234° |
| 2026-05-06 20:28 | 36.54779 | -111.09562 | 33909 ft | 520 kts | 234° |
| 2026-05-06 20:29 | 36.50195 | -111.16526 | 33903 ft | 520 kts | 234° |
| 2026-05-06 20:29 | 36.45613 | -111.23471 | 33906 ft | 520 kts | 234° |
| 2026-05-06 20:30 | 36.38731 | -111.33876 | 33911 ft | 520 kts | 234° |
| 2026-05-06 20:31 | 36.34170 | -111.40753 | 33912 ft | 520 kts | 234° |
| 2026-05-06 20:31 | 36.29568 | -111.47679 | 33917 ft | 520 kts | 234° |
| 2026-05-06 20:32 | 36.24963 | -111.54596 | 33916 ft | 521 kts | 233° |
| 2026-05-06 20:32 | 36.20348 | -111.61514 | 33926 ft | 521 kts | 233° |
| 2026-05-06 20:33 | 36.15764 | -111.68372 | 33941 ft | 521 kts | 233° |
| 2026-05-06 20:33 | 36.11135 | -111.75287 | 33955 ft | 522 kts | 233° |
| 2026-05-06 20:34 | 36.06827 | -111.82461 | 34010 ft | 517 kts | 244° |
| 2026-05-06 20:34 | 36.03971 | -111.90515 | 34078 ft | 511 kts | 254° |
| 2026-05-06 20:35 | 36.01471 | -111.98716 | 34136 ft | 510 kts | 254° |
| 2026-05-06 20:35 | 35.98930 | -112.06856 | 34155 ft | 512 kts | 253° |
| 2026-05-06 20:36 | 35.96314 | -112.15029 | 34172 ft | 512 kts | 252° |
| 2026-05-06 20:36 | 35.93679 | -112.23187 | 34167 ft | 512 kts | 252° |
| 2026-05-06 20:37 | 35.91036 | -112.31352 | 34132 ft | 512 kts | 252° |
| 2026-05-06 20:37 | 35.88407 | -112.39466 | 34092 ft | 513 kts | 252° |
| 2026-05-06 20:38 | 35.85756 | -112.47630 | 34044 ft | 513 kts | 252° |
| 2026-05-06 20:38 | 35.83099 | -112.55788 | 34011 ft | 513 kts | 252° |
| 2026-05-06 20:39 | 35.80433 | -112.63951 | 34004 ft | 514 kts | 252° |
| 2026-05-06 20:39 | 35.77759 | -112.72114 | 33999 ft | 514 kts | 252° |
| 2026-05-06 20:40 | 35.75097 | -112.80222 | 34002 ft | 514 kts | 252° |
| 2026-05-06 20:40 | 35.72414 | -112.88370 | 33994 ft | 515 kts | 252° |
| 2026-05-06 20:41 | 35.69718 | -112.96536 | 34001 ft | 515 kts | 251° |
| 2026-05-06 20:41 | 35.67019 | -113.04690 | 33988 ft | 515 kts | 251° |
| 2026-05-06 20:42 | 35.64313 | -113.12842 | 33987 ft | 515 kts | 251° |
| 2026-05-06 20:42 | 35.61622 | -113.20932 | 33979 ft | 515 kts | 251° |
| 2026-05-06 20:43 | 35.58901 | -113.29075 | 33975 ft | 515 kts | 251° |
| 2026-05-06 20:43 | 35.56171 | -113.37206 | 33978 ft | 515 kts | 251° |
| 2026-05-06 20:44 | 35.53438 | -113.45330 | 33968 ft | 515 kts | 251° |
| 2026-05-06 20:44 | 35.50697 | -113.53456 | 33963 ft | 515 kts | 251° |
| 2026-05-06 20:45 | 35.47971 | -113.61522 | 33969 ft | 515 kts | 251° |
| 2026-05-06 20:45 | 35.45221 | -113.69638 | 34011 ft | 515 kts | 250° |
| 2026-05-06 20:46 | 35.42465 | -113.77749 | 34037 ft | 516 kts | 250° |
| 2026-05-06 20:46 | 35.39698 | -113.85868 | 34069 ft | 516 kts | 250° |
| 2026-05-06 20:47 | 35.36945 | -113.93929 | 34099 ft | 516 kts | 250° |
| 2026-05-06 20:47 | 35.34167 | -114.02039 | 34105 ft | 517 kts | 250° |
| 2026-05-06 20:48 | 35.31380 | -114.10153 | 34084 ft | 517 kts | 250° |
| 2026-05-06 20:48 | 35.28585 | -114.18269 | 34046 ft | 518 kts | 250° |
| 2026-05-06 20:49 | 35.25786 | -114.26379 | 34018 ft | 517 kts | 250° |
| 2026-05-06 20:49 | 35.23003 | -114.34421 | 34004 ft | 517 kts | 250° |
| 2026-05-06 20:50 | 35.20187 | -114.42534 | 34009 ft | 518 kts | 250° |
| 2026-05-06 20:50 | 35.17370 | -114.50632 | 34015 ft | 518 kts | 250° |
| 2026-05-06 20:51 | 35.14547 | -114.58729 | 34019 ft | 518 kts | 250° |
| 2026-05-06 20:51 | 35.11725 | -114.66822 | 33997 ft | 518 kts | 250° |
| 2026-05-06 20:52 | 35.08918 | -114.74924 | 33996 ft | 518 kts | 250° |
| 2026-05-06 20:52 | 35.06129 | -114.82954 | 33974 ft | 514 kts | 250° |
| 2026-05-06 20:53 | 35.03356 | -114.90887 | 33977 ft | 504 kts | 248° |
| 2026-05-06 20:53 | 35.00219 | -114.98497 | 33968 ft | 499 kts | 244° |
| 2026-05-06 20:54 | 34.96903 | -115.05877 | 33972 ft | 493 kts | 244° |
| 2026-05-06 20:54 | 34.93686 | -115.13139 | 33966 ft | 488 kts | 244° |
| 2026-05-06 20:55 | 34.90523 | -115.20400 | 33966 ft | 483 kts | 244° |
| 2026-05-06 20:55 | 34.87388 | -115.27608 | 33978 ft | 482 kts | 244° |
| 2026-05-06 20:56 | 34.84210 | -115.34897 | 33989 ft | 493 kts | 244° |
| 2026-05-06 20:56 | 34.80957 | -115.42329 | 33985 ft | 502 kts | 244° |
| 2026-05-06 20:57 | 34.77769 | -115.49911 | 33986 ft | 510 kts | 248° |
| 2026-05-06 20:57 | 34.74890 | -115.57856 | 33989 ft | 517 kts | 249° |
| 2026-05-06 20:58 | 34.72013 | -115.65903 | 33976 ft | 521 kts | 249° |
| 2026-05-06 20:58 | 34.69058 | -115.73946 | 33975 ft | 522 kts | 248° |
| 2026-05-06 20:59 | 34.66576 | -115.80631 | 33982 ft | 522 kts | 248° |
| 2026-05-06 20:59 | 34.63107 | -115.89974 | 33980 ft | 522 kts | 248° |
| 2026-05-06 21:00 | 34.60144 | -115.97997 | 33994 ft | 520 kts | 249° |
| 2026-05-06 21:00 | 34.57687 | -116.04662 | 34029 ft | 520 kts | 249° |
| 2026-05-06 21:01 | 34.54738 | -116.12643 | 34039 ft | 516 kts | 248° |
| 2026-05-06 21:01 | 34.51813 | -116.20530 | 34059 ft | 511 kts | 248° |
| 2026-05-06 21:01 | 34.50351 | -116.24468 | 33710 ft | 516 kts | 248° |
| 2026-05-06 21:02 | 34.48387 | -116.29752 | 32595 ft | 518 kts | 248° |
| 2026-05-06 21:02 | 34.46905 | -116.33732 | 31668 ft | 518 kts | 248° |
| 2026-05-06 21:02 | 34.45902 | -116.36418 | 31032 ft | 518 kts | 248° |
| 2026-05-06 21:02 | 34.44415 | -116.40402 | 30064 ft | 519 kts | 248° |
| 2026-05-06 21:03 | 34.42928 | -116.44383 | 28882 ft | 519 kts | 248° |
| 2026-05-06 21:03 | 34.41457 | -116.48310 | 27824 ft | 518 kts | 247° |
| 2026-05-06 21:03 | 34.39918 | -116.52194 | 27156 ft | 508 kts | 245° |
| 2026-05-06 21:03 | 34.38328 | -116.56002 | 26668 ft | 497 kts | 245° |
| 2026-05-06 21:04 | 34.36774 | -116.59674 | 26355 ft | 483 kts | 245° |
| 2026-05-06 21:04 | 34.35282 | -116.63241 | 26168 ft | 467 kts | 245° |
| 2026-05-06 21:04 | 34.33848 | -116.66705 | 25973 ft | 453 kts | 245° |
| 2026-05-06 21:04 | 34.32463 | -116.70088 | 25538 ft | 447 kts | 246° |
| 2026-05-06 21:05 | 34.31114 | -116.73445 | 25064 ft | 442 kts | 246° |
| 2026-05-06 21:05 | 34.29796 | -116.76740 | 24533 ft | 440 kts | 246° |
| 2026-05-06 21:05 | 34.28468 | -116.80058 | 24003 ft | 437 kts | 246° |
| 2026-05-06 21:05 | 34.27144 | -116.83359 | 23412 ft | 436 kts | 246° |
| 2026-05-06 21:06 | 34.25822 | -116.86640 | 22810 ft | 433 kts | 246° |
| 2026-05-06 21:06 | 34.24508 | -116.89898 | 22252 ft | 429 kts | 246° |
| 2026-05-06 21:06 | 34.23801 | -116.91647 | 21965 ft | 428 kts | 246° |
| 2026-05-06 21:07 | 34.23609 | -116.92124 | 21887 ft | 427 kts | 246° |
| 2026-05-06 21:07 | 34.22309 | -116.95337 | 21352 ft | 424 kts | 246° |
| 2026-05-06 21:07 | 34.21029 | -116.98528 | 20818 ft | 420 kts | 248° |
| 2026-05-06 21:07 | 34.19996 | -117.01802 | 20340 ft | 413 kts | 255° |
| 2026-05-06 21:08 | 34.19159 | -117.05099 | 19827 ft | 409 kts | 257° |
| 2026-05-06 21:08 | 34.18365 | -117.08332 | 19337 ft | 405 kts | 256° |
| 2026-05-06 21:08 | 34.17528 | -117.11563 | 18862 ft | 402 kts | 255° |
| 2026-05-06 21:08 | 34.16667 | -117.14768 | 18289 ft | 401 kts | 255° |
| 2026-05-06 21:09 | 34.15794 | -117.17955 | 17731 ft | 399 kts | 255° |
| 2026-05-06 21:09 | 34.14919 | -117.21124 | 17114 ft | 397 kts | 254° |
| 2026-05-06 21:09 | 34.14051 | -117.24264 | 16601 ft | 390 kts | 254° |
| 2026-05-06 21:09 | 34.13203 | -117.27332 | 16091 ft | 380 kts | 254° |
| 2026-05-06 21:10 | 34.12375 | -117.30335 | 15607 ft | 375 kts | 254° |
| 2026-05-06 21:10 | 34.11564 | -117.33276 | 15140 ft | 373 kts | 254° |
| 2026-05-06 21:10 | 34.10745 | -117.36239 | 14662 ft | 372 kts | 254° |
| 2026-05-06 21:10 | 34.09959 | -117.39198 | 14199 ft | 369 kts | 255° |
| 2026-05-06 21:11 | 34.09226 | -117.42155 | 13709 ft | 367 kts | 256° |
| 2026-05-06 21:11 | 34.08503 | -117.45094 | 13208 ft | 365 kts | 256° |
| 2026-05-06 21:11 | 34.07779 | -117.48002 | 12920 ft | 356 kts | 256° |
| 2026-05-06 21:11 | 34.07038 | -117.50812 | 12618 ft | 349 kts | 252° |
| 2026-05-06 21:12 | 34.06114 | -117.53517 | 12185 ft | 349 kts | 248° |
| 2026-05-06 21:12 | 34.05116 | -117.56175 | 11773 ft | 346 kts | 247° |
| 2026-05-06 21:12 | 34.04125 | -117.58804 | 11337 ft | 345 kts | 248° |
| 2026-05-06 21:12 | 34.03166 | -117.61406 | 10909 ft | 343 kts | 248° |
| 2026-05-06 21:13 | 34.02210 | -117.64040 | 10467 ft | 342 kts | 249° |
| 2026-05-06 21:13 | 34.01269 | -117.66647 | 10244 ft | 334 kts | 249° |
| 2026-05-06 21:13 | 34.00521 | -117.69240 | 10045 ft | 321 kts | 263° |
| 2026-05-06 21:13 | 34.00263 | -117.71868 | 9764 ft | 314 kts | 267° |
| 2026-05-06 21:14 | 34.00046 | -117.74453 | 9386 ft | 306 kts | 267° |
| 2026-05-06 21:14 | 33.99827 | -117.76983 | 9096 ft | 301 kts | 267° |
| 2026-05-06 21:14 | 33.99592 | -117.79484 | 8762 ft | 300 kts | 266° |
| 2026-05-06 21:14 | 33.99351 | -117.81980 | 8411 ft | 300 kts | 265° |
| 2026-05-06 21:15 | 33.99111 | -117.84462 | 8058 ft | 298 kts | 265° |
| 2026-05-06 21:15 | 33.98869 | -117.86942 | 7709 ft | 297 kts | 266° |
| 2026-05-06 21:15 | 33.98632 | -117.89378 | 7319 ft | 296 kts | 266° |
| 2026-05-06 21:15 | 33.98493 | -117.91832 | 6974 ft | 290 kts | 269° |
| 2026-05-06 21:16 | 33.98331 | -117.94225 | 6641 ft | 283 kts | 265° |
| 2026-05-06 21:16 | 33.98088 | -117.96552 | 6278 ft | 277 kts | 265° |
| 2026-05-06 21:16 | 33.97839 | -117.98821 | 5953 ft | 270 kts | 264° |
| 2026-05-06 21:16 | 33.97601 | -118.01040 | 5637 ft | 265 kts | 264° |
| 2026-05-06 21:17 | 33.97370 | -118.03247 | 5326 ft | 266 kts | 265° |
| 2026-05-06 21:17 | 33.97151 | -118.05332 | 5103 ft | 264 kts | 265° |
| 2026-05-06 21:17 | 33.96917 | -118.07553 | 5015 ft | 263 kts | 265° |
| 2026-05-06 21:17 | 33.96686 | -118.09769 | 4677 ft | 269 kts | 265° |
| 2026-05-06 21:18 | 33.96461 | -118.11926 | 4348 ft | 261 kts | 264° |
| 2026-05-06 21:18 | 33.96236 | -118.14074 | 4011 ft | 255 kts | 264° |
| 2026-05-06 21:18 | 33.96017 | -118.16164 | 3673 ft | 250 kts | 264° |
| 2026-05-06 21:18 | 33.95804 | -118.18216 | 3365 ft | 243 kts | 264° |
| 2026-05-06 21:19 | 33.95597 | -118.20216 | 3050 ft | 238 kts | 263° |
| 2026-05-06 21:19 | 33.95395 | -118.22166 | 2740 ft | 231 kts | 262° |
| 2026-05-06 21:19 | 33.95202 | -118.24013 | 2435 ft | 216 kts | 262° |
| 2026-05-06 21:19 | 33.95023 | -118.25746 | 2149 ft | 201 kts | 262° |
| 2026-05-06 21:20 | 33.94858 | -118.27342 | 1935 ft | 185 kts | 262° |
| 2026-05-06 21:20 | 33.94709 | -118.28808 | 1682 ft | 171 kts | 262° |
| 2026-05-06 21:20 | 33.94570 | -118.30152 | 1469 ft | 158 kts | 262° |
| 2026-05-06 21:20 | 33.94436 | -118.31437 | 1281 ft | 151 kts | 262° |
| 2026-05-06 21:21 | 33.94313 | -118.32655 | 1058 ft | 145 kts | 263° |
| 2026-05-06 21:21 | 33.94206 | -118.33805 | 914 ft | 137 kts | 262° |
| 2026-05-06 21:21 | 33.94080 | -118.34961 | 731 ft | 140 kts | 262° |
| 2026-05-06 21:21 | 33.93960 | -118.36129 | 509 ft | 139 kts | 262° |
| 2026-05-06 21:22 | 33.93843 | -118.37261 | 320 ft | 133 kts | 261° |
| 2026-05-06 21:22 | 33.93732 | -118.38318 | 136 ft | 131 kts | 262° |
| 2026-05-06 21:22 | 33.93643 | -118.39389 | 252 ft | 134 kts | 262° |
| 2026-05-06 21:22 | 33.93521 | -118.40602 | 765 ft | 147 kts | 261° |
| 2026-05-06 21:23 | 33.93392 | -118.41769 | 1106 ft | 135 kts | 261° |
| 2026-05-06 21:23 | 33.93164 | -118.42873 | 1166 ft | 142 kts | 238° |
| 2026-05-06 21:23 | 33.92347 | -118.43582 | 1317 ft | 156 kts | 200° |
| 2026-05-06 21:23 | 33.91332 | -118.44122 | 1383 ft | 161 kts | 210° |
| 2026-05-06 21:24 | 33.90339 | -118.44781 | 1761 ft | 172 kts | 211° |
| 2026-05-06 21:24 | 33.89244 | -118.45494 | 1957 ft | 188 kts | 208° |
| 2026-05-06 21:24 | 33.88105 | -118.46235 | 1982 ft | 185 kts | 208° |
| 2026-05-06 21:24 | 33.86993 | -118.46947 | 2049 ft | 182 kts | 212° |
| 2026-05-06 21:25 | 33.85804 | -118.47622 | 2296 ft | 199 kts | 205° |
| 2026-05-06 21:25 | 33.84375 | -118.47829 | 2512 ft | 216 kts | 170° |
| 2026-05-06 21:25 | 33.83036 | -118.47009 | 2697 ft | 222 kts | 135° |
| 2026-05-06 21:25 | 33.82287 | -118.45408 | 2925 ft | 222 kts | 101° |
| 2026-05-06 21:26 | 33.82117 | -118.43547 | 2970 ft | 227 kts | 92° |
| 2026-05-06 21:26 | 33.82035 | -118.41648 | 2985 ft | 227 kts | 91° |
| 2026-05-06 21:26 | 33.81963 | -118.39759 | 2982 ft | 225 kts | 91° |
| 2026-05-06 21:26 | 33.81894 | -118.37882 | 3019 ft | 226 kts | 91° |
| 2026-05-06 21:27 | 33.81825 | -118.36019 | 2970 ft | 223 kts | 91° |
| 2026-05-06 21:27 | 33.81763 | -118.34175 | 2976 ft | 219 kts | 91° |
| 2026-05-06 21:27 | 33.81700 | -118.32352 | 2969 ft | 219 kts | 91° |
| 2026-05-06 21:27 | 33.81883 | -118.30539 | 2978 ft | 223 kts | 67° |
| 2026-05-06 21:28 | 33.82565 | -118.28846 | 2992 ft | 226 kts | 62° |
| 2026-05-06 21:28 | 33.83295 | -118.27153 | 3000 ft | 229 kts | 62° |
| 2026-05-06 21:28 | 33.84031 | -118.25454 | 2984 ft | 228 kts | 61° |
| 2026-05-06 21:28 | 33.84797 | -118.23790 | 2962 ft | 226 kts | 51° |
| 2026-05-06 21:29 | 33.85986 | -118.22698 | 2957 ft | 211 kts | 18° |
| 2026-05-06 21:29 | 33.87356 | -118.22289 | 2953 ft | 195 kts | 11° |
| 2026-05-06 21:29 | 33.88636 | -118.21946 | 2983 ft | 188 kts | 12° |
| 2026-05-06 21:29 | 33.89894 | -118.21610 | 2983 ft | 185 kts | 11° |
| 2026-05-06 21:30 | 33.91172 | -118.21415 | 2983 ft | 186 kts | 352° |
| 2026-05-06 21:30 | 33.92412 | -118.21781 | 2989 ft | 182 kts | 332° |
| 2026-05-06 21:30 | 33.93383 | -118.22649 | 2794 ft | 170 kts | 313° |
| 2026-05-06 21:30 | 33.94104 | -118.23767 | 2393 ft | 165 kts | 296° |
| 2026-05-06 21:31 | 33.94500 | -118.24948 | 2316 ft | 143 kts | 289° |
| 2026-05-06 21:31 | 33.94816 | -118.26076 | 2235 ft | 146 kts | 277° |
| 2026-05-06 21:31 | 33.94836 | -118.27317 | 2092 ft | 149 kts | 264° |
| 2026-05-06 21:31 | 33.94731 | -118.28524 | 1966 ft | 144 kts | 263° |
| 2026-05-06 21:32 | 33.94632 | -118.29696 | 1820 ft | 141 kts | 262° |
| 2026-05-06 21:32 | 33.94369 | -118.32055 | 1453 ft | 143 kts | 264° |
| 2026-05-06 21:32 | 33.94242 | -118.33278 | 1228 ft | 150 kts | 260° |
| 2026-05-06 21:33 | 33.94100 | -118.34510 | 970 ft | 148 kts | 262° |
| 2026-05-06 21:33 | 33.93984 | -118.35722 | 673 ft | 143 kts | 263° |
| 2026-05-06 21:33 | 33.93876 | -118.36892 | 422 ft | 138 kts | 263° |
| 2026-05-06 21:33 | 33.93765 | -118.38006 | 203 ft | 131 kts | 262° |
| 2026-05-06 21:34 | 33.93659 | -118.39016 | 106 ft | 99 kts | 262° |
| 2026-05-06 21:34 | 33.93602 | -118.39586 | 109 ft | 36 kts | 268° |
| 2026-05-06 21:34 | 33.93627 | -118.39879 | 109 ft | 34 kts | 284° |
| 2026-05-06 21:34 | 33.93649 | -118.39943 | 107 ft | 0 kts | 292° |
| 2026-05-06 21:35 | 33.93656 | -118.39970 | 107 ft | 12 kts | 283° |
| 2026-05-06 21:35 | 33.93660 | -118.40090 | 106 ft | 15 kts | 263° |
| 2026-05-06 21:35 | 33.93647 | -118.40210 | 106 ft | 14 kts | 262° |
| 2026-05-06 21:36 | 33.93651 | -118.40324 | 106 ft | 13 kts | 286° |
| 2026-05-06 21:36 | 33.93698 | -118.40414 | 107 ft | 13 kts | 338° |
| 2026-05-06 21:36 | 33.93785 | -118.40428 | 107 ft | 13 kts | 354° |
| 2026-05-06 21:36 | 33.93845 | -118.40386 | 102 ft | 6 kts | 78° |
| 2026-05-06 21:37 | 33.93847 | -118.40335 | 103 ft | 6 kts | 88° |